Time;durP1;ratioP1;P1;durP2;ratioP2;P2;SDS_P1;SDS_P2;PMS_P1;PMS_P2;Temp;Humidity;BMP_temperature;BMP_pressure;BME280_temperature;BME280_humidity;BME280_pressure;Samples;Min_cycle;Max_cycle;Signal;HPM_P1;HPM_P2
2024/02/26 00:01:58;;;;;;;2.03;1.40;;;;;;;6.31;60.67;94743.28;4976748;28;20050;-69
2024/02/26 00:04:23;;;;;;;3.55;1.60;;;;;;;6.34;61.50;94733.59;4985956;28;20049;-69
2024/02/26 00:06:51;;;;;;;2.10;1.30;;;;;;;6.51;59.48;94738.25;4987470;28;20092;-69
2024/02/26 00:09:16;;;;;;;3.22;1.48;;;;;;;6.37;61.40;94740.94;4973771;28;20046;-69
2024/02/26 00:11:42;;;;;;;2.22;1.27;;;;;;;6.37;61.25;94742.91;4978466;28;20088;-69
2024/02/26 00:14:07;;;;;;;1.15;1.05;;;;;;;6.31;61.42;94740.56;4973914;28;20046;-68
2024/02/26 00:16:32;;;;;;;2.28;1.42;;;;;;;6.34;61.51;94743.66;4977787;28;20462;-68
2024/02/26 00:18:58;;;;;;;2.03;1.15;;;;;;;6.37;61.41;94740.94;4979860;28;20054;-68
2024/02/26 00:21:23;;;;;;;3.03;1.30;;;;;;;6.38;61.08;94739.03;4968371;28;20130;-69
2024/02/26 00:23:50;;;;;;;2.30;1.38;;;;;;;6.36;61.58;94741.38;4980776;28;20034;-68
2024/02/26 00:26:16;;;;;;;2.20;1.35;;;;;;;6.34;62.28;94744.47;4973546;28;20480;-68
2024/02/26 00:28:43;;;;;;;2.45;1.10;;;;;;;6.37;61.65;94751.06;4979786;28;20092;-68
2024/02/26 00:31:08;;;;;;;1.90;1.10;;;;;;;6.41;61.34;94743.69;4974250;28;20060;-69
2024/02/26 00:33:33;;;;;;;2.30;1.30;;;;;;;6.44;61.52;94743.69;4982039;28;20126;-69
2024/02/26 00:35:59;;;;;;;2.72;1.15;;;;;;;6.49;61.92;94739.81;4988216;28;20046;-68
2024/02/26 00:38:24;;;;;;;2.08;1.10;;;;;;;6.46;61.44;94730.50;4975702;28;20410;-67
2024/02/26 00:40:50;;;;;;;2.05;1.48;;;;;;;6.44;62.63;94724.66;4977518;28;20043;-67
2024/02/26 00:43:15;;;;;;;3.53;1.30;;;;;;;6.44;61.40;94721.16;4974847;28;20043;-67
2024/02/26 00:45:40;;;;;;;2.60;1.20;;;;;;;6.45;61.98;94714.56;4978237;28;20041;-69
2024/02/26 00:48:07;;;;;;;1.90;1.20;;;;;;;6.42;61.71;94710.66;4975044;28;20043;-67
2024/02/26 00:50:33;;;;;;;2.05;1.15;;;;;;;6.38;63.01;94711.84;4979538;28;20716;-67
2024/02/26 00:52:59;;;;;;;1.98;1.30;;;;;;;6.40;62.01;94715.72;4979303;28;20159;-68
2024/02/26 00:55:24;;;;;;;1.75;1.27;;;;;;;6.41;61.26;94709.13;4966656;28;20090;-68
2024/02/26 00:57:49;;;;;;;1.83;1.10;;;;;;;6.41;61.92;94711.84;4979107;28;20046;-68
2024/02/26 01:00:15;;;;;;;2.35;1.38;;;;;;;6.43;61.11;94711.47;4972557;28;20366;-68
2024/02/26 01:02:46;;;;;;;2.03;1.02;;;;;;;6.38;61.81;94709.91;4978783;28;20038;-67
2024/02/26 01:05:12;;;;;;;1.70;1.10;;;;;;;6.42;61.89;94718.06;4975297;28;20038;-68
2024/02/26 01:07:39;;;;;;;2.45;1.42;;;;;;;6.43;61.93;94706.78;4978798;28;20089;-68
2024/02/26 01:10:06;;;;;;;2.90;1.15;;;;;;;6.39;62.92;94710.66;4974198;28;20042;-68
2024/02/26 01:12:32;;;;;;;2.03;1.10;;;;;;;6.41;62.24;94709.13;4979437;28;20065;-68
2024/02/26 01:14:58;;;;;;;3.83;1.13;;;;;;;6.43;62.09;94703.31;4983970;28;20473;-69
2024/02/26 01:17:23;;;;;;;2.10;1.30;;;;;;;6.40;63.26;94698.63;4977721;28;20043;-68
2024/02/26 01:19:48;;;;;;;1.70;1.33;;;;;;;6.44;62.27;94697.44;4981384;28;20485;-69
2024/02/26 01:22:14;;;;;;;1.73;1.30;;;;;;;6.47;62.79;94699.41;4978256;28;20073;-69
2024/02/26 01:24:39;;;;;;;2.55;1.35;;;;;;;6.44;62.64;94699.41;4974397;28;20050;-69
2024/02/26 01:27:06;;;;;;;1.48;0.93;;;;;;;6.50;61.71;94695.16;4979033;28;20537;-70
2024/02/26 01:29:31;;;;;;;3.55;2.20;;;;;;;6.56;63.09;94692.81;4981683;28;20120;-69
2024/02/26 01:31:57;;;;;;;4.97;1.73;;;;;;;6.63;62.69;94699.00;4982102;28;20129;-69
2024/02/26 01:34:22;;;;;;;3.10;1.35;;;;;;;6.60;63.87;94699.00;5001773;28;20520;-70
2024/02/26 01:36:47;;;;;;;2.00;1.10;;;;;;;6.53;63.17;94705.22;4994860;28;20530;-69
2024/02/26 01:39:13;;;;;;;2.00;1.35;;;;;;;6.61;62.39;94706.00;4977931;28;20047;-69
2024/02/26 01:41:39;;;;;;;2.17;1.30;;;;;;;6.60;62.28;94701.72;4982437;28;20058;-68
2024/02/26 01:44:05;;;;;;;3.85;1.60;;;;;;;6.54;63.30;94706.03;4978169;28;20042;-69
2024/02/26 01:46:33;;;;;;;3.05;1.70;;;;;;;6.50;63.31;94706.03;4982566;28;20468;-69
2024/02/26 01:49:00;;;;;;;3.00;1.52;;;;;;;6.48;63.57;94702.88;4982554;28;20568;-69
2024/02/26 01:51:26;;;;;;;2.95;1.10;;;;;;;6.63;62.03;94700.97;4975906;28;20082;-69
2024/02/26 01:53:52;;;;;;;5.13;2.53;;;;;;;6.68;61.74;94697.81;4982403;28;20070;-68
2024/02/26 01:56:19;;;;;;;12.65;4.68;;;;;;;6.63;62.63;94698.25;4983187;28;20054;-69
2024/02/26 01:58:45;;;;;;;41.00;17.50;;;;;;;6.58;63.14;94699.41;4979447;28;20042;-69
2024/02/26 02:01:12;;;;;;;12.55;6.10;;;;;;;6.59;63.97;94700.16;4973502;28;20500;-68
2024/02/26 02:03:38;;;;;;;5.15;2.35;;;;;;;6.63;62.80;94699.00;4982106;28;20124;-68
2024/02/26 02:06:04;;;;;;;4.22;1.70;;;;;;;6.69;63.46;94697.44;4978081;28;20497;-69
2024/02/26 02:08:30;;;;;;;4.63;2.40;;;;;;;6.68;62.79;94700.56;4980940;28;20046;-69
2024/02/26 02:10:56;;;;;;;3.38;1.60;;;;;;;6.76;62.11;94691.22;4982020;28;20433;-68
2024/02/26 02:13:21;;;;;;;1.40;1.15;;;;;;;6.78;62.70;94694.31;4976249;28;20267;-68
2024/02/26 02:15:47;;;;;;;2.42;1.10;;;;;;;6.81;62.00;94703.66;4983158;28;20424;-68
2024/02/26 02:18:12;;;;;;;1.98;1.15;;;;;;;6.77;62.33;94700.16;4975761;28;20092;-68
2024/02/26 02:20:38;;;;;;;2.10;1.20;;;;;;;6.78;63.09;94710.66;4981278;28;20129;-69
2024/02/26 02:23:03;;;;;;;1.95;1.20;;;;;;;6.83;63.14;94712.22;4977701;28;20049;-69
2024/02/26 02:25:29;;;;;;;1.90;0.90;;;;;;;6.81;63.41;94712.59;4981784;28;20846;-69
2024/02/26 02:27:55;;;;;;;1.73;0.93;;;;;;;6.83;64.36;94714.94;4981028;28;20038;-69
2024/02/26 02:30:23;;;;;;;1.63;1.20;;;;;;;6.84;69.15;94720.00;4974495;28;21214;-68
2024/02/26 02:32:49;;;;;;;1.70;1.10;;;;;;;6.82;72.46;94721.53;4982225;28;20041;-69
2024/02/26 02:35:14;;;;;;;2.75;1.15;;;;;;;6.78;74.13;94721.53;4997229;28;20038;-69
2024/02/26 02:37:40;;;;;;;2.05;0.90;;;;;;;6.58;75.89;94728.56;4983807;28;20078;-67
2024/02/26 02:40:06;;;;;;;2.60;1.20;;;;;;;6.55;75.84;94730.09;4976353;28;20620;-68
2024/02/26 02:42:31;;;;;;;3.08;1.27;;;;;;;6.61;78.29;94722.31;4981002;28;20105;-68
2024/02/26 02:44:57;;;;;;;2.20;1.10;;;;;;;6.68;75.52;94723.09;4982224;28;20042;-68
2024/02/26 02:47:22;;;;;;;2.47;1.30;;;;;;;6.64;74.79;94725.03;4975030;28;20475;-68
2024/02/26 02:49:48;;;;;;;3.47;1.30;;;;;;;6.58;76.00;94726.59;4971883;28;20038;-68
2024/02/26 02:52:13;;;;;;;2.58;1.40;;;;;;;6.51;76.33;94726.59;4975285;28;20042;-67
2024/02/26 02:54:41;;;;;;;2.33;1.15;;;;;;;6.53;76.81;94726.97;4980513;28;20138;-67
2024/02/26 02:57:07;;;;;;;2.58;1.20;;;;;;;6.63;74.37;94725.44;4976084;28;20050;-67
2024/02/26 02:59:32;;;;;;;3.67;1.10;;;;;;;6.58;75.24;94740.19;4991919;28;20105;-68
2024/02/26 03:01:58;;;;;;;2.97;1.30;;;;;;;6.47;77.29;94739.44;4991756;28;20149;-67
2024/02/26 03:04:23;;;;;;;2.00;1.10;;;;;;;6.45;78.47;94742.53;4975455;28;20599;-67
2024/02/26 03:06:48;;;;;;;3.55;1.30;;;;;;;6.41;80.56;94751.84;4981164;28;20069;-67
2024/02/26 03:09:14;;;;;;;3.13;1.58;;;;;;;6.36;82.03;94746.81;4976522;28;20088;-67
2024/02/26 03:11:39;;;;;;;3.95;1.70;;;;;;;6.31;83.70;94754.16;4980933;28;20097;-69
2024/02/26 03:14:06;;;;;;;2.40;1.45;;;;;;;6.16;85.62;94751.78;4974658;28;20049;-66
2024/02/26 03:16:31;;;;;;;2.55;1.50;;;;;;;6.08;88.20;94751.78;4980791;28;20467;-67
2024/02/26 03:18:57;;;;;;;5.22;2.00;;;;;;;6.19;90.80;94748.31;4981136;28;20046;-67
2024/02/26 03:21:22;;;;;;;4.22;2.28;;;;;;;6.36;92.65;94736.69;4967518;28;20485;-67
2024/02/26 03:23:47;;;;;;;2.83;1.70;;;;;;;6.38;95.12;94723.50;4980016;28;20078;-67
2024/02/26 03:26:14;;;;;;;3.38;2.17;;;;;;;6.21;98.63;94730.47;4977383;28;20092;-69
2024/02/26 03:28:40;;;;;;;4.45;1.85;;;;;;;6.05;100.00;94732.75;4982614;28;20104;-68
2024/02/26 03:31:05;;;;;;;3.42;2.30;;;;;;;6.04;100.00;94710.25;4975336;28;20553;-68
2024/02/26 03:33:31;;;;;;;4.97;2.30;;;;;;;6.16;100.00;94705.59;4982905;28;20489;-67
2024/02/26 03:35:56;;;;;;;2.95;2.00;;;;;;;6.12;100.00;94698.22;5000442;28;20077;-68
2024/02/26 03:38:22;;;;;;;3.47;1.92;;;;;;;6.03;100.00;94702.47;4975805;28;20486;-68
2024/02/26 03:40:47;;;;;;;3.42;2.20;;;;;;;5.95;100.00;94709.81;4980742;28;20042;-70
2024/02/26 03:43:13;;;;;;;4.28;1.83;;;;;;;5.65;100.00;94702.72;4975393;28;20077;-67
2024/02/26 03:45:38;;;;;;;6.13;1.95;;;;;;;5.41;100.00;94701.50;4980384;28;20145;-68
2024/02/26 03:48:04;;;;;;;2.78;2.00;;;;;;;5.33;100.00;94694.47;4974195;28;20050;-68
2024/02/26 03:50:29;;;;;;;4.47;2.10;;;;;;;5.30;100.00;94693.31;4978288;28;20050;-68
2024/02/26 03:52:57;;;;;;;3.10;1.98;;;;;;;5.44;100.00;94703.44;4978764;28;20037;-68
2024/02/26 03:55:24;;;;;;;3.67;2.20;;;;;;;5.50;100.00;94696.47;4968638;28;20073;-68
2024/02/26 03:57:52;;;;;;;3.65;1.98;;;;;;;5.23;100.00;94677.00;4978000;28;20086;-68
2024/02/26 04:00:18;;;;;;;4.10;2.30;;;;;;;5.04;100.00;94678.06;4972953;28;20096;-68
2024/02/26 04:02:43;;;;;;;6.20;2.88;;;;;;;5.20;100.00;94672.31;4984712;28;20046;-68
2024/02/26 04:05:12;;;;;;;7.63;2.42;;;;;;;5.14;100.00;94671.13;4979447;28;20050;-68
2024/02/26 04:07:38;;;;;;;4.25;2.33;;;;;;;5.13;100.00;94656.78;4992396;28;20049;-67
2024/02/26 04:10:09;;;;;;;3.38;1.80;;;;;;;5.11;100.00;94639.31;4990568;28;20030;-67
2024/02/26 04:12:35;;;;;;;3.05;2.10;;;;;;;4.69;100.00;94637.97;4985958;28;20050;-67
2024/02/26 04:15:05;;;;;;;4.75;2.00;;;;;;;4.72;100.00;94623.66;4975609;28;20042;-66
2024/02/26 04:17:30;;;;;;;3.25;2.00;;;;;;;4.77;100.00;94621.38;4978709;28;20041;-67
2024/02/26 04:19:55;;;;;;;2.47;1.63;;;;;;;4.91;100.00;94614.44;4980150;28;20047;-67
2024/02/26 04:22:21;;;;;;;2.75;1.75;;;;;;;5.09;100.00;94599.00;4974998;28;20566;-67
2024/02/26 04:24:46;;;;;;;2.03;1.45;;;;;;;5.44;100.00;94613.06;4979624;28;20042;-67
2024/02/26 04:27:12;;;;;;;3.20;1.50;;;;;;;5.49;99.99;94620.84;4973950;28;20039;-67
2024/02/26 04:29:37;;;;;;;2.38;1.30;;;;;;;5.57;96.83;94621.66;4978856;28;20432;-67
2024/02/26 04:32:03;;;;;;;3.70;1.25;;;;;;;5.68;93.23;94622.44;4976946;28;20624;-68
2024/02/26 04:34:29;;;;;;;1.30;1.10;;;;;;;5.88;88.69;94623.63;4989158;28;20046;-68
2024/02/26 04:36:54;;;;;;;1.58;1.10;;;;;;;5.96;87.42;94643.47;4992527;28;20045;-67
2024/02/26 04:39:20;;;;;;;1.50;1.17;;;;;;;5.97;85.64;94639.56;4987278;28;20073;-67
2024/02/26 04:41:45;;;;;;;1.48;0.95;;;;;;;6.02;86.34;94652.78;4985612;28;20050;-68
2024/02/26 04:44:11;;;;;;;6.57;1.75;;;;;;;6.24;84.81;94671.81;4983622;28;20034;-67
2024/02/26 04:46:37;;;;;;;2.60;1.50;;;;;;;6.02;89.87;94671.03;4979016;28;20073;-67
2024/02/26 04:49:02;;;;;;;2.70;1.65;;;;;;;5.78;95.89;94684.16;4980277;28;20046;-67
2024/02/26 04:51:27;;;;;;;10.98;2.00;;;;;;;5.67;96.86;94689.56;4981085;28;20708;-67
2024/02/26 04:53:53;;;;;;;7.93;2.35;;;;;;;5.64;98.28;94693.03;4995490;28;20676;-66
2024/02/26 04:56:23;;;;;;;2.95;1.35;;;;;;;5.58;100.00;94702.72;4973140;28;20043;-68
2024/02/26 04:58:48;;;;;;;3.25;1.98;;;;;;;5.66;100.00;94714.41;4989739;28;20042;-68
2024/02/26 05:01:15;;;;;;;4.28;2.00;;;;;;;5.58;100.00;94710.84;4979655;28;20566;-68
2024/02/26 05:03:41;;;;;;;4.07;1.90;;;;;;;5.47;100.00;94723.63;4981383;28;20128;-69
2024/02/26 05:06:06;;;;;;;3.08;1.73;;;;;;;5.49;100.00;94727.53;4978494;28;20468;-68
2024/02/26 05:08:33;;;;;;;6.25;2.65;;;;;;;5.57;100.00;94733.00;4984340;28;20031;-68
2024/02/26 05:11:00;;;;;;;3.55;1.83;;;;;;;5.98;100.00;94738.97;4982869;28;20772;-68
2024/02/26 05:13:25;;;;;;;3.83;1.80;;;;;;;6.07;95.17;94746.75;4978339;28;20120;-67
2024/02/26 05:15:52;;;;;;;2.83;1.60;;;;;;;5.83;100.00;94746.25;4982266;28;20043;-68
2024/02/26 05:18:17;;;;;;;2.80;1.63;;;;;;;5.71;100.00;94760.97;4978508;28;20043;-68
2024/02/26 05:20:43;;;;;;;3.50;1.90;;;;;;;5.66;100.00;94760.56;4983024;28;20130;-68
2024/02/26 05:23:09;;;;;;;5.38;2.80;;;;;;;5.68;100.00;94755.53;4976671;28;20069;-68
2024/02/26 05:25:34;;;;;;;6.40;3.13;;;;;;;5.67;100.00;94757.47;4983050;28;20493;-68
2024/02/26 05:28:00;;;;;;;6.03;2.70;;;;;;;5.85;100.00;94749.38;4982568;28;20054;-68
2024/02/26 05:30:27;;;;;;;4.88;1.90;;;;;;;5.82;100.00;94742.00;4976174;28;20405;-68
2024/02/26 05:32:53;;;;;;;3.42;1.73;;;;;;;5.73;100.00;94752.44;4980192;28;20042;-68
2024/02/26 05:35:18;;;;;;;6.30;2.05;;;;;;;5.59;100.00;94757.81;4989758;28;20058;-67
2024/02/26 05:37:44;;;;;;;4.43;2.03;;;;;;;5.58;100.00;94759.75;4990411;28;20070;-67
2024/02/26 05:40:10;;;;;;;3.72;1.90;;;;;;;5.45;100.00;94753.09;4980455;28;20073;-67
2024/02/26 05:42:35;;;;;;;3.10;2.30;;;;;;;5.36;100.00;94751.50;4982794;28;20649;-67
2024/02/26 05:45:05;;;;;;;4.80;2.00;;;;;;;5.23;100.00;94754.94;4981580;28;20094;-69
2024/02/26 05:47:35;;;;;;;3.83;2.10;;;;;;;5.19;100.00;94752.19;4982132;28;20466;-68
2024/02/26 05:50:03;;;;;;;4.45;2.58;;;;;;;5.17;100.00;94759.94;4982075;28;20042;-68
2024/02/26 05:52:32;;;;;;;4.43;2.13;;;;;;;5.20;100.00;94766.53;4981954;28;20050;-68
2024/02/26 05:54:58;;;;;;;2.90;1.85;;;;;;;5.09;100.00;94769.19;4982713;28;20244;-68
2024/02/26 05:57:23;;;;;;;4.18;2.28;;;;;;;4.95;100.00;94775.28;4977318;28;20517;-69
2024/02/26 05:59:48;;;;;;;4.85;2.45;;;;;;;4.82;100.00;94772.09;4981094;28;20046;-68
2024/02/26 06:02:14;;;;;;;3.72;1.90;;;;;;;4.90;100.00;94781.84;4971202;28;20041;-69
2024/02/26 06:04:39;;;;;;;4.32;2.03;;;;;;;4.87;100.00;94781.81;4978154;28;20042;-68
2024/02/26 06:07:05;;;;;;;4.18;2.47;;;;;;;4.74;100.00;94786.78;4976550;28;20047;-68
2024/02/26 06:09:30;;;;;;;5.47;3.00;;;;;;;4.91;100.00;94790.75;4969895;28;20043;-68
2024/02/26 06:11:55;;;;;;;5.07;2.65;;;;;;;4.99;100.00;94784.25;4980283;28;20125;-67
2024/02/26 06:14:21;;;;;;;4.32;2.50;;;;;;;5.03;100.00;94789.69;4976214;28;20062;-67
2024/02/26 06:16:46;;;;;;;4.88;2.70;;;;;;;5.06;100.00;94784.28;4981516;28;20038;-68
2024/02/26 06:19:12;;;;;;;5.75;2.30;;;;;;;5.13;100.00;94795.19;4988567;28;20033;-68
2024/02/26 06:21:37;;;;;;;3.58;2.40;;;;;;;5.14;100.00;94802.16;4986508;28;20720;-68
2024/02/26 06:24:03;;;;;;;4.90;2.42;;;;;;;5.12;100.00;94796.34;4977145;28;20030;-66
2024/02/26 06:26:29;;;;;;;3.70;2.08;;;;;;;5.29;100.00;94797.59;4981834;28;20053;-67
2024/02/26 06:28:55;;;;;;;8.15;2.10;;;;;;;5.29;100.00;94803.03;4981644;28;20137;-67
2024/02/26 06:31:22;;;;;;;5.63;2.58;;;;;;;5.27;100.00;94805.34;4979297;28;20065;-66
2024/02/26 06:33:48;;;;;;;5.03;2.63;;;;;;;5.27;100.00;94813.50;4979656;28;20054;-69
2024/02/26 06:36:13;;;;;;;4.18;2.50;;;;;;;5.14;100.00;94820.38;4976844;28;20042;-67
2024/02/26 06:38:39;;;;;;;15.65;4.40;;;;;;;5.09;100.00;94824.22;4998458;28;20563;-68
2024/02/26 06:41:04;;;;;;;13.65;3.63;;;;;;;5.05;100.00;94825.38;4976269;28;20078;-67
2024/02/26 06:43:30;;;;;;;5.03;2.65;;;;;;;5.10;100.00;94827.75;4980342;28;20761;-67
2024/02/26 06:45:55;;;;;;;6.05;2.17;;;;;;;5.23;100.00;94834.41;4980955;28;20394;-67
2024/02/26 06:48:22;;;;;;;48.33;10.82;;;;;;;5.21;100.00;94836.72;4975046;28;20685;-67
2024/02/26 06:50:47;;;;;;;10.20;3.28;;;;;;;4.98;100.00;94842.38;4979557;28;20044;-68
2024/02/26 06:53:13;;;;;;;8.20;4.30;;;;;;;4.72;100.00;94846.03;4975785;28;20038;-68
2024/02/26 06:55:40;;;;;;;9.98;4.75;;;;;;;4.75;100.00;94839.84;4980688;28;20388;-68
2024/02/26 06:58:06;;;;;;;12.15;6.25;;;;;;;4.73;100.00;94834.03;4975973;28;20050;-68
2024/02/26 07:00:31;;;;;;;9.40;4.45;;;;;;;4.47;100.00;94826.81;4981149;28;20038;-68
2024/02/26 07:02:56;;;;;;;12.48;4.38;;;;;;;4.17;100.00;94839.28;4980471;28;20133;-67
2024/02/26 07:05:22;;;;;;;6.10;2.72;;;;;;;4.23;100.00;94845.13;4976436;28;20687;-67
2024/02/26 07:07:47;;;;;;;6.18;2.40;;;;;;;4.15;100.00;94849.72;4980860;28;20125;-67
2024/02/26 07:10:12;;;;;;;7.50;2.70;;;;;;;4.26;100.00;94849.84;4974742;28;20039;-68
2024/02/26 07:12:38;;;;;;;6.40;3.30;;;;;;;4.35;100.00;94854.97;4979452;28;20060;-67
2024/02/26 07:15:06;;;;;;;24.38;7.72;;;;;;;5.16;100.00;94856.06;4975846;28;20547;-68
2024/02/26 07:17:33;;;;;;;29.42;7.82;;;;;;;6.32;100.00;94861.75;4980210;28;20109;-66
2024/02/26 07:19:59;;;;;;;13.60;6.10;;;;;;;6.72;100.00;94852.91;4979861;28;20046;-68
2024/02/26 07:22:24;;;;;;;9.52;5.07;;;;;;;6.62;100.00;94851.72;4976315;28;20567;-68
2024/02/26 07:24:50;;;;;;;10.30;3.47;;;;;;;6.24;100.00;94848.53;4980057;28;20038;-67
2024/02/26 07:27:17;;;;;;;6.85;5.95;;;;;;;6.78;100.00;94843.97;4975372;28;20042;-68
2024/02/26 07:29:43;;;;;;;7.72;3.38;;;;;;;7.13;100.00;94847.09;4979303;28;20600;-68
2024/02/26 07:32:08;;;;;;;10.27;3.20;;;;;;;7.33;100.00;94847.47;4973966;28;20038;-66
2024/02/26 07:34:34;;;;;;;4.25;2.72;;;;;;;7.04;99.06;94842.03;4979910;28;20054;-68
2024/02/26 07:36:59;;;;;;;5.22;2.72;;;;;;;7.24;94.50;94856.06;4978157;28;20045;-67
2024/02/26 07:39:25;;;;;;;5.63;3.40;;;;;;;8.02;93.86;94848.91;4997419;28;20259;-68
2024/02/26 07:41:52;;;;;;;4.75;2.53;;;;;;;7.18;92.60;94841.28;4979417;28;20416;-67
2024/02/26 07:44:18;;;;;;;4.88;2.53;;;;;;;6.21;100.00;94830.25;4974571;28;20049;-68
2024/02/26 07:46:44;;;;;;;4.53;2.40;;;;;;;6.23;100.00;94839.59;4979647;28;20034;-67
2024/02/26 07:49:09;;;;;;;4.05;2.13;;;;;;;6.22;100.00;94838.03;4974989;28;20125;-67
2024/02/26 07:51:34;;;;;;;4.63;2.35;;;;;;;6.96;98.68;94841.28;4980512;28;20058;-66
2024/02/26 07:54:00;;;;;;;5.45;2.20;;;;;;;7.70;95.40;94848.97;4979553;28;20350;-67
2024/02/26 07:56:26;;;;;;;3.63;2.00;;;;;;;8.50;83.21;94850.25;4974608;28;20057;-67
2024/02/26 07:58:51;;;;;;;6.07;2.55;;;;;;;8.58;81.11;94859.97;4984473;28;20034;-67
2024/02/26 08:01:17;;;;;;;4.03;2.45;;;;;;;7.59;85.93;94857.94;4991388;28;20030;-66
2024/02/26 08:03:42;;;;;;;5.25;2.70;;;;;;;6.79;94.14;94845.53;4972420;28;20038;-67
2024/02/26 08:06:08;;;;;;;5.35;2.70;;;;;;;6.76;93.71;94856.41;4976703;28;20478;-67
2024/02/26 08:08:34;;;;;;;10.20;3.05;;;;;;;6.85;97.55;94854.88;4981225;28;20048;-67
2024/02/26 08:10:59;;;;;;;11.02;3.25;;;;;;;7.18;96.41;94854.88;4971438;28;20047;-67
2024/02/26 08:13:26;;;;;;;9.73;3.40;;;;;;;7.03;96.44;94854.13;4975261;28;20077;-68
2024/02/26 08:15:51;;;;;;;7.13;3.17;;;;;;;6.73;99.50;94841.63;4986146;28;20342;-67
2024/02/26 08:18:17;;;;;;;6.13;3.25;;;;;;;6.49;100.00;94826.84;4993229;28;20034;-68
2024/02/26 08:20:42;;;;;;;7.00;4.13;;;;;;;6.81;98.04;94837.00;4986070;28;20046;-67
2024/02/26 08:23:07;;;;;;;10.25;3.83;;;;;;;7.15;96.14;94837.41;4977752;28;20041;-67
2024/02/26 08:25:33;;;;;;;15.25;5.00;;;;;;;7.33;94.77;94836.59;4983687;28;20050;-67
2024/02/26 08:27:58;;;;;;;10.30;3.17;;;;;;;6.86;98.00;94842.03;4983312;28;20457;-67
2024/02/26 08:30:24;;;;;;;11.93;4.30;;;;;;;6.99;96.25;94843.22;4977879;28;20057;-67
2024/02/26 08:32:49;;;;;;;6.40;3.70;;;;;;;7.55;93.91;94840.06;4983970;28;20044;-67
2024/02/26 08:35:15;;;;;;;8.55;3.58;;;;;;;8.04;92.98;94844.59;4977436;28;20078;-67
2024/02/26 08:37:44;;;;;;;6.07;3.15;;;;;;;8.00;90.24;94837.59;4985204;28;20120;-68
2024/02/26 08:40:10;;;;;;;4.80;3.05;;;;;;;7.18;94.21;94839.31;4989404;28;20038;-66
2024/02/26 08:42:35;;;;;;;4.40;2.95;;;;;;;7.26;95.83;94840.09;4982740;28;20120;-67
2024/02/26 08:45:02;;;;;;;6.95;2.92;;;;;;;7.36;93.87;94839.31;4982567;28;20485;-68
2024/02/26 08:47:28;;;;;;;6.15;2.88;;;;;;;7.76;93.66;94845.47;4981438;28;20065;-67
2024/02/26 08:49:53;;;;;;;4.18;3.28;;;;;;;7.56;92.17;94850.59;4983574;28;20097;-68
2024/02/26 08:52:18;;;;;;;4.25;2.90;;;;;;;7.77;90.66;94846.25;4977815;28;20042;-67
2024/02/26 08:54:44;;;;;;;5.07;2.65;;;;;;;7.60;90.73;94837.72;4982706;28;20050;-67
2024/02/26 08:57:09;;;;;;;5.57;2.40;;;;;;;7.36;91.97;94839.31;4977835;28;20133;-68
2024/02/26 08:59:35;;;;;;;5.45;2.92;;;;;;;7.63;93.36;94836.16;4983255;28;20673;-67
2024/02/26 09:02:00;;;;;;;5.90;3.05;;;;;;;7.98;92.59;94834.50;4982126;28;20489;-67
2024/02/26 09:04:27;;;;;;;6.05;2.80;;;;;;;8.71;87.59;94841.19;4978575;28;20034;-68
2024/02/26 09:06:53;;;;;;;5.15;2.83;;;;;;;7.88;88.09;94846.97;4981986;28;20053;-68
2024/02/26 09:09:19;;;;;;;4.53;3.00;;;;;;;8.14;89.56;94842.22;4977958;28;20042;-68
2024/02/26 09:11:45;;;;;;;5.80;3.25;;;;;;;7.97;87.96;94844.63;4981937;28;20131;-68
2024/02/26 09:14:10;;;;;;;4.40;2.90;;;;;;;8.29;88.28;94854.63;4977418;28;20073;-67
2024/02/26 09:16:35;;;;;;;4.32;2.92;;;;;;;8.74;85.09;94857.53;4982109;28;20099;-68
2024/02/26 09:19:02;;;;;;;5.93;3.22;;;;;;;9.75;81.11;94857.50;4980301;28;20089;-69
2024/02/26 09:21:28;;;;;;;4.03;2.72;;;;;;;11.18;70.95;94864.31;4981417;28;20133;-68
2024/02/26 09:23:54;;;;;;;6.05;3.05;;;;;;;11.05;70.12;94864.13;4982883;28;20129;-69
2024/02/26 09:26:19;;;;;;;8.85;2.97;;;;;;;11.37;67.53;94874.59;4977089;28;20066;-69
2024/02/26 09:28:45;;;;;;;5.05;2.42;;;;;;;11.71;66.36;94868.16;4982024;28;20050;-69
2024/02/26 09:31:10;;;;;;;2.90;2.00;;;;;;;11.23;65.12;94877.56;4977058;28;20101;-69
2024/02/26 09:33:36;;;;;;;6.00;2.85;;;;;;;11.22;66.20;94865.81;4980803;28;20038;-68
2024/02/26 09:36:02;;;;;;;3.90;2.38;;;;;;;10.85;68.12;94862.06;4981470;28;20050;-68
2024/02/26 09:38:29;;;;;;;4.45;2.78;;;;;;;10.71;66.07;94865.78;4982039;28;20081;-68
2024/02/26 09:40:56;;;;;;;3.78;2.00;;;;;;;10.75;66.62;94862.22;5003235;28;20042;-68
2024/02/26 09:43:25;;;;;;;3.70;2.20;;;;;;;10.50;68.30;94863.34;4976621;28;20054;-68
2024/02/26 09:45:53;;;;;;;5.68;2.38;;;;;;;10.21;69.90;94865.59;4981914;28;20035;-68
2024/02/26 09:48:19;;;;;;;3.88;2.05;;;;;;;10.21;68.90;94874.59;4978017;28;20038;-69
2024/02/26 09:50:45;;;;;;;5.28;2.50;;;;;;;9.75;68.66;94873.91;4981848;28;20104;-69
2024/02/26 09:53:12;;;;;;;4.25;2.15;;;;;;;9.77;71.40;94887.94;4977828;28;20038;-69
2024/02/26 09:55:37;;;;;;;3.72;2.53;;;;;;;10.40;68.26;94891.59;4982188;28;20038;-68
2024/02/26 09:58:05;;;;;;;3.85;2.28;;;;;;;9.74;69.84;94886.03;4977069;28;20035;-67
2024/02/26 10:00:34;;;;;;;4.90;2.72;;;;;;;9.61;72.76;94882.22;4981688;28;20046;-67
2024/02/26 10:03:04;;;;;;;3.72;2.50;;;;;;;9.42;74.32;94883.59;4981909;28;20125;-66
2024/02/26 10:05:33;;;;;;;4.07;2.40;;;;;;;9.75;75.13;94873.91;4982857;28;20053;-69
2024/02/26 10:08:00;;;;;;;6.90;2.50;;;;;;;10.23;73.99;94876.94;4981930;28;20405;-69
2024/02/26 10:10:29;;;;;;;3.67;2.28;;;;;;;9.81;71.64;94873.47;4979898;28;20042;-66
2024/02/26 10:12:54;;;;;;;3.65;1.95;;;;;;;9.62;73.59;94880.28;4981257;28;20044;-67
2024/02/26 10:15:19;;;;;;;5.70;2.45;;;;;;;9.40;76.03;94876.94;4977399;28;20727;-67
2024/02/26 10:17:45;;;;;;;3.90;2.40;;;;;;;9.35;77.31;94870.75;4981059;28;20061;-68
2024/02/26 10:20:17;;;;;;;3.20;2.03;;;;;;;9.57;75.29;94870.56;4975552;28;20129;-68
2024/02/26 10:22:46;;;;;;;5.55;2.50;;;;;;;9.35;77.96;94873.47;4981649;28;20038;-67
2024/02/26 10:25:11;;;;;;;3.65;2.35;;;;;;;9.46;79.29;94867.94;4976239;28;20085;-67
2024/02/26 10:27:37;;;;;;;7.82;4.25;;;;;;;9.70;77.83;94870.81;4981352;28;20038;-67
2024/02/26 10:30:19;;;;;;;5.38;2.35;;;;;;;9.74;75.57;94872.34;4978383;28;20557;-68
2024/02/26 10:32:46;;;;;;;4.28;2.17;;;;;;;10.00;73.89;94883.03;4981262;28;20046;-67
2024/02/26 10:35:13;;;;;;;2.75;2.10;;;;;;;9.89;71.63;94883.91;4976053;28;20130;-68
2024/02/26 10:37:40;;;;;;;5.75;2.00;;;;;;;10.32;72.67;94888.19;4981079;28;20109;-68
2024/02/26 10:40:09;;;;;;;4.63;2.00;;;;;;;10.42;72.00;94886.50;4975727;28;20042;-68
2024/02/26 10:42:34;;;;;;;5.72;3.45;;;;;;;10.99;76.66;94893.19;4982027;28;20038;-67
2024/02/26 10:45:02;;;;;;;29.00;9.45;;;;;;;10.86;81.30;94885.53;4981780;28;20041;-68
2024/02/26 10:47:29;;;;;;;6.70;3.70;;;;;;;10.75;82.73;94892.31;4979079;28;20042;-68
2024/02/26 10:49:56;;;;;;;7.15;3.50;;;;;;;10.40;82.35;94895.09;4980632;28;20074;-68
2024/02/26 10:52:25;;;;;;;5.97;3.55;;;;;;;10.28;82.98;94901.88;4976406;28;20572;-68
2024/02/26 10:54:55;;;;;;;15.32;5.70;;;;;;;10.24;83.73;94895.66;4980523;28;20065;-68
2024/02/26 10:57:22;;;;;;;6.88;3.78;;;;;;;10.07;84.63;94885.69;4976249;28;20488;-67
2024/02/26 10:59:48;;;;;;;13.23;4.00;;;;;;;10.24;83.79;94897.63;4979608;28;20112;-69
2024/02/26 11:02:14;;;;;;;8.50;3.80;;;;;;;9.97;84.94;94887.34;4974933;28;20052;-68
2024/02/26 11:04:40;;;;;;;7.05;3.13;;;;;;;9.87;84.81;94896.47;4980821;28;20042;-68
2024/02/26 11:07:09;;;;;;;5.03;3.42;;;;;;;9.70;84.08;94900.91;4983096;28;20603;-69
2024/02/26 11:09:35;;;;;;;7.93;3.60;;;;;;;9.56;87.28;94899.06;4980862;28;20054;-69
2024/02/26 11:12:02;;;;;;;6.10;3.33;;;;;;;9.67;88.41;94898.97;4981041;28;20105;-68
2024/02/26 11:14:29;;;;;;;7.53;3.67;;;;;;;9.35;89.29;94908.22;4976615;28;20069;-68
2024/02/26 11:16:57;;;;;;;16.67;6.22;;;;;;;9.24;90.00;94902.84;4980384;28;20049;-68
2024/02/26 11:19:24;;;;;;;11.02;5.38;;;;;;;9.08;90.13;94905.31;4994876;28;20038;-68
2024/02/26 11:21:50;;;;;;;34.35;6.45;;;;;;;9.12;90.04;94906.81;4980047;28;20100;-67
2024/02/26 11:24:18;;;;;;;10.80;5.25;;;;;;;9.14;88.68;94907.19;4975477;28;20039;-67
2024/02/26 11:26:55;;;;;;;14.82;4.10;;;;;;;9.05;91.01;94906.09;4980669;28;20129;-67
2024/02/26 11:29:22;;;;;;;13.30;4.38;;;;;;;8.89;90.47;94903.84;4974805;28;20042;-67
2024/02/26 11:31:49;;;;;;;14.18;5.13;;;;;;;8.91;90.58;94904.22;4979117;28;20070;-68